Time;durP1;ratioP1;P1;durP2;ratioP2;P2;SDS_P1;SDS_P2;PMS_P1;PMS_P2;Temp;Humidity;BMP_temperature;BMP_pressure;BME280_temperature;BME280_humidity;BME280_pressure;Samples;Min_cycle;Max_cycle;Signal;HPM_P1;HPM_P2
2021/04/09 00:01:45;;;;;;;;;36.75;36.00;;;;;6.96;49.15;101819.81;5129214;27;11765;-72
2021/04/09 00:04:41;;;;;;;;;48.50;38.25;;;;;7.00;49.74;101824.78;5129199;27;11507;-72
2021/04/09 00:07:24;;;;;;;;;44.75;41.00;;;;;6.91;49.28;101822.59;5130444;27;11548;-72
2021/04/09 00:10:22;;;;;;;;;42.75;37.00;;;;;7.06;49.16;101821.75;5129073;27;11539;-72
2021/04/09 00:13:18;;;;;;;;;33.75;32.00;;;;;7.16;49.34;101834.63;5140024;27;11736;-72
2021/04/09 00:16:13;;;;;;;;;32.00;23.25;;;;;7.08;49.19;101827.78;5149735;27;11496;-73
2021/04/09 00:19:13;;;;;;;;;30.00;30.00;;;;;7.03;49.29;101827.78;5149345;27;11543;-72
2021/04/09 00:22:51;;;;;;;;;34.00;33.00;;;;;7.01;49.94;101826.41;5149578;27;11524;-72
2021/04/09 00:43:41;;;;;;;;;;;;;;;;;;;;;
2021/04/09 00:47:15;;;;;;;;;25.75;24.50;;;;;6.65;51.89;101842.97;5032538;28;12499;-72
2021/04/09 00:51:11;;;;;;;;;26.00;26.00;;;;;6.47;52.69;101841.63;5001310;28;11701;-73
2021/04/09 00:54:15;;;;;;;;;30.25;27.50;;;;;6.38;53.00;101833.09;5038129;28;12349;-73
2021/04/09 00:56:43;;;;;;;;;29.25;26.00;;;;;6.36;53.45;101839.97;5051553;28;12373;-73
2021/04/09 00:59:39;;;;;;;;;36.25;30.50;;;;;6.40;53.27;101850.13;5051265;28;11711;-73
2021/04/09 01:02:24;;;;;;;;;26.00;26.00;;;;;6.31;53.89;101851.78;5075353;27;11536;-73
2021/04/09 01:05:21;;;;;;;;;36.50;34.00;;;;;6.45;53.24;101856.75;5114204;28;11523;-72
2021/04/09 01:08:16;;;;;;;;;29.50;28.25;;;;;6.37;53.81;101864.44;5114140;28;11522;-73
2021/04/09 01:11:12;;;;;;;;;25.00;25.00;;;;;6.48;53.73;101865.25;5114211;28;11566;-73
2021/04/09 01:14:09;;;;;;;;;25.75;25.00;;;;;6.44;53.93;101864.16;5130949;27;11485;-73
2021/04/09 01:17:17;;;;;;;;;19.25;19.25;;;;;6.47;54.05;101868.28;5134770;27;12308;-73
2021/04/09 01:20:29;;;;;;;;;26.25;25.00;;;;;6.50;53.87;101867.72;5134118;27;11152;-72
2021/04/09 01:23:51;;;;;;;;;22.00;21.25;;;;;6.41;54.86;101879.25;5134659;27;12267;-73
2021/04/09 01:27:28;;;;;;;;;27.50;24.25;;;;;6.54;54.56;101879.84;5123079;27;11490;-72
2021/04/09 01:30:59;;;;;;;;;19.00;19.00;;;;;6.41;55.00;101882.00;5085232;28;11539;-73
2021/04/09 01:33:58;;;;;;;;;2.50;2.50;;;;;6.44;54.98;101891.66;5114295;27;11486;-72
2021/04/09 01:36:58;;;;;;;;;24.25;23.00;;;;;6.53;55.18;101889.19;5113653;28;11467;-72
2021/04/09 01:40:01;;;;;;;;;34.00;31.00;;;;;6.49;55.69;101888.88;5113788;28;11508;-72
2021/04/09 01:43:01;;;;;;;;;23.75;23.75;;;;;6.48;55.46;101891.91;5113708;28;11648;-73
2021/04/09 01:46:01;;;;;;;;;27.50;27.50;;;;;6.24;56.38;101899.88;5100163;28;11696;-73
2021/04/09 01:48:57;;;;;;;;;23.00;22.00;;;;;6.17;56.49;101904.78;5113420;28;11510;-73
2021/04/09 01:51:54;;;;;;;;;28.50;28.50;;;;;6.31;55.96;101917.72;5113423;28;11525;-72
2021/04/09 01:54:53;;;;;;;;;27.50;27.50;;;;;6.15;56.14;101918.81;5099714;28;11530;-73
2021/04/09 01:57:51;;;;;;;;;30.50;30.00;;;;;6.16;56.23;101920.44;5113287;28;11516;-72
2021/04/09 02:00:47;;;;;;;;;32.25;30.00;;;;;6.17;56.58;101930.34;5113198;28;11529;-72
2021/04/09 02:03:45;;;;;;;;;33.75;31.75;;;;;6.30;56.23;101935.31;5113264;28;11512;-72
2021/04/09 02:06:41;;;;;;;;;34.25;31.50;;;;;6.28;56.23;101945.75;5113158;28;11542;-72
2021/04/09 02:09:38;;;;;;;;;38.00;35.00;;;;;6.13;56.57;101943.81;5113231;28;11512;-73
2021/04/09 02:12:34;;;;;;;;;36.75;32.75;;;;;6.06;56.83;101959.72;5114997;27;11545;-72
2021/04/09 02:15:30;;;;;;;;;28.00;26.25;;;;;6.15;56.39;101953.69;5133506;27;11488;-73
2021/04/09 02:18:27;;;;;;;;;30.00;30.00;;;;;6.07;56.57;101953.13;5133416;27;11550;-73
2021/04/09 02:21:24;;;;;;;;;27.75;26.25;;;;;6.14;56.32;101963.84;5133405;27;11510;-73
2021/04/09 02:24:19;;;;;;;;;27.00;25.25;;;;;6.06;56.36;101962.47;5119622;27;11531;-72
2021/04/09 02:27:15;;;;;;;;;39.50;36.50;;;;;5.93;57.64;101965.69;5119483;27;11480;-72
2021/04/09 02:30:13;;;;;;;;;60.75;49.00;;;;;5.71;58.37;101956.78;5112489;28;11525;-74
2021/04/09 02:32:41;;;;;;;;;60.00;50.75;;;;;5.64;58.92;101958.94;5113494;28;11624;-72
2021/04/09 02:35:37;;;;;;;;;61.00;48.33;;;;;5.57;59.31;101960.00;5112403;28;11676;-73
2021/04/09 02:38:32;;;;;;;;;53.75;45.25;;;;;5.62;59.34;101963.88;5112404;28;11519;-74
2021/04/09 02:41:34;;;;;;;;;40.50;38.75;;;;;5.70;58.51;101961.44;5112320;28;12389;-73
2021/04/09 02:44:30;;;;;;;;;63.33;53.33;;;;;5.55;59.43;101955.88;5112391;28;11531;-72
2021/04/09 02:47:28;;;;;;;;;39.25;35.75;;;;;5.55;59.23;101956.69;5109819;27;11499;-73
2021/04/09 02:50:39;;;;;;;;;40.25;39.25;;;;;5.34;59.71;101963.16;5098904;28;11579;-73
2021/04/09 02:53:38;;;;;;;;;43.25;40.00;;;;;5.57;59.62;101953.69;5098687;28;11711;-73
2021/04/09 02:56:38;;;;;;;;;43.50;41.00;;;;;5.59;59.36;101959.72;5112270;28;11487;-73
2021/04/09 02:59:35;;;;;;;;;45.25;40.25;;;;;5.54;59.55;101956.97;5112039;28;12234;-73
2021/04/09 03:02:25;;;;;;;;;39.50;34.00;;;;;5.58;59.58;101963.56;5130187;27;11605;-73
2021/04/09 03:05:20;;;;;;;;;32.50;30.75;;;;;5.48;59.79;101964.34;5132437;27;11610;-73
2021/04/09 03:08:18;;;;;;;;;25.25;23.50;;;;;5.47;59.96;101970.94;5098276;28;11503;-73
2021/04/09 03:11:14;;;;;;;;;31.50;31.00;;;;;5.37;60.60;101972.75;5112073;28;11510;-73
2021/04/09 03:14:11;;;;;;;;;29.50;29.25;;;;;5.43;60.57;101974.47;5112004;28;12299;-73
2021/04/09 03:17:12;;;;;;;;;29.75;29.25;;;;;5.38;61.03;101985.41;5111866;28;11517;-72
2021/04/09 03:20:08;;;;;;;;;36.25;34.50;;;;;5.41;61.36;101995.84;5111684;28;11505;-72
2021/04/09 03:23:04;;;;;;;;;38.75;37.25;;;;;5.37;61.51;102006.53;5112562;28;11564;-73
2021/04/09 03:26:00;;;;;;;;;30.25;29.50;;;;;5.31;61.56;102015.81;5102772;27;11611;-73
2021/04/09 03:28:56;;;;;;;;;30.25;29.75;;;;;5.39;61.25;102004.34;5104041;28;11564;-72
2021/04/09 03:31:52;;;;;;;;;31.25;31.25;;;;;5.56;60.60;102010.50;5111899;28;11560;-72
2021/04/09 03:34:48;;;;;;;;;49.00;41.25;;;;;5.39;61.48;102015.34;5111657;28;12300;-72
2021/04/09 03:37:44;;;;;;;;;51.75;44.50;;;;;5.34;61.81;102022.69;5112726;27;12312;-72
2021/04/09 03:40:40;;;;;;;;;40.00;39.75;;;;;5.40;61.80;102032.63;5111354;28;11613;-72
2021/04/09 03:43:09;;;;;;;;;73.00;57.33;;;;;5.27;62.98;102034.72;5123974;27;11642;-72
2021/04/09 03:46:05;;;;;;;;;49.33;44.67;;;;;5.21;63.46;102032.19;5132198;27;8878;-72
2021/04/09 03:49:00;;;;;;;;;53.33;44.33;;;;;5.13;64.03;102032.66;5118340;28;12262;-72
2021/04/09 03:51:56;;;;;;;;;59.67;46.00;;;;;5.20;63.29;102044.25;5111580;28;12310;-72
2021/04/09 03:54:52;;;;;;;;;24.75;24.75;;;;;5.21;62.87;102045.91;5111394;28;11569;-72
2021/04/09 03:57:48;;;;;;;;;32.00;31.00;;;;;5.20;62.24;102050.56;5111715;28;11497;-73
2021/04/09 04:00:43;;;;;;;;;43.00;41.00;;;;;5.37;62.42;102050.44;5111284;28;11544;-72
2021/04/09 04:03:39;;;;;;;;;28.00;27.00;;;;;5.63;61.52;102064.34;5111325;28;11519;-73
2021/04/09 04:06:35;;;;;;;;;22.25;22.25;;;;;5.58;60.79;102062.38;5111928;28;11515;-74
2021/04/09 04:09:30;;;;;;;;;32.25;30.75;;;;;5.77;60.63;102074.59;5111217;28;11559;-72
2021/04/09 04:11:59;;;;;;;;;42.25;40.00;;;;;5.82;60.70;102079.28;5113810;27;11662;-72
2021/04/09 04:14:54;;;;;;;;;37.00;31.25;;;;;5.88;59.59;102091.13;5123696;27;11594;-72
2021/04/09 04:17:50;;;;;;;;;35.50;32.00;;;;;5.98;59.63;102093.94;5114961;28;11498;-72
2021/04/09 04:20:46;;;;;;;;;59.75;48.25;;;;;6.11;60.27;102105.28;5115099;28;11578;-72
2021/04/09 04:23:42;;;;;;;;;50.75;42.25;;;;;6.33;59.59;102101.56;5115185;28;11572;-72
2021/04/09 04:26:37;;;;;;;;;81.00;61.67;;;;;6.33;60.35;102096.88;5114938;28;11594;-73
2021/04/09 04:29:34;;;;;;;;;40.25;36.00;;;;;6.48;59.09;102093.38;5115189;28;8829;-73
2021/04/09 04:32:30;;;;;;;;;33.25;33.25;;;;;6.40;58.10;102096.66;5114521;28;11643;-76
2021/04/09 04:35:25;;;;;;;;;42.00;39.25;;;;;6.55;58.00;102104.94;5119915;27;11609;-76
2021/04/09 04:38:21;;;;;;;;;33.75;30.25;;;;;6.46;57.62;102095.56;5121860;27;11506;-76
2021/04/09 04:41:17;;;;;;;;;38.50;36.25;;;;;6.57;57.22;102088.19;5115259;28;11493;-76
2021/04/09 04:44:13;;;;;;;;;34.00;34.00;;;;;6.58;57.59;102081.59;5114995;28;11539;-76
2021/04/09 04:46:54;;;;;;;;;38.25;34.50;;;;;6.70;57.02;102076.69;5115015;28;11502;-76
2021/04/09 04:49:49;;;;;;;;;42.25;36.50;;;;;6.95;57.05;102086.91;5101334;28;11605;-76
2021/04/09 04:52:45;;;;;;;;;32.50;31.25;;;;;7.04;56.11;102087.19;5108261;27;11498;-76
2021/04/09 04:55:40;;;;;;;;;39.25;36.75;;;;;7.05;56.18;102092.41;5126521;27;11588;-76
2021/04/09 04:58:36;;;;;;;;;31.50;31.00;;;;;6.75;56.59;102097.84;5129112;27;11490;-77
2021/04/09 05:01:31;;;;;;;;;33.50;32.75;;;;;6.79;56.48;102091.53;5114481;28;11512;-78
2021/04/09 05:04:28;;;;;;;;;27.50;26.50;;;;;7.09;56.30;102090.78;5101079;28;11516;-78
2021/04/09 05:07:24;;;;;;;;;47.75;40.00;;;;;7.19;55.59;102101.78;5115173;28;11544;-78
2021/04/09 05:10:19;;;;;;;;;28.75;28.75;;;;;7.31;55.93;102098.78;5114218;28;11728;-78
2021/04/09 05:13:15;;;;;;;;;45.75;39.75;;;;;7.50;55.11;102091.59;5114416;28;12183;-77
2021/04/09 05:16:10;;;;;;;;;32.75;32.75;;;;;7.73;54.15;102090.19;5100832;28;12237;-78
2021/04/09 05:19:07;;;;;;;;;33.25;33.00;;;;;7.96;53.63;102093.47;5114717;28;11556;-77
2021/04/09 05:22:03;;;;;;;;;37.00;34.00;;;;;8.00;52.87;102098.16;5124381;27;11483;-76
2021/04/09 05:24:59;;;;;;;;;28.50;28.50;;;;;7.88;53.52;102102.31;5114122;28;11655;-78
2021/04/09 05:27:56;;;;;;;;;30.25;28.25;;;;;8.13;52.90;102090.38;5114031;28;11508;-80
2021/04/09 05:30:51;;;;;;;;;20.25;20.00;;;;;7.64;54.11;102093.81;5129544;27;11592;-79
2021/04/09 05:33:47;;;;;;;;;25.50;23.00;;;;;7.66;54.06;102099.84;5122693;27;11483;-79
2021/04/09 05:36:42;;;;;;;;;21.00;19.75;;;;;8.04;53.57;102092.91;5113175;28;11633;-79
2021/04/09 05:39:39;;;;;;;;;28.25;28.25;;;;;8.28;52.57;102093.09;5113768;28;11488;-79
2021/04/09 05:42:25;;;;;;;;;25.50;25.25;;;;;8.13;52.54;102099.50;5099043;28;11586;-80
2021/04/09 05:45:20;;;;;;;;;25.50;24.50;;;;;7.77;53.37;102093.25;5133107;27;11499;-76
2021/04/09 05:48:17;;;;;;;;;30.00;29.75;;;;;7.76;53.50;102099.88;5129625;27;11528;-77
2021/04/09 05:51:12;;;;;;;;;29.25;29.25;;;;;7.73;53.44;102097.66;5110923;27;11672;-79
2021/04/09 05:54:08;;;;;;;;;34.00;30.25;;;;;7.74;53.55;102100.16;5119701;27;11517;-78
2021/04/09 05:57:06;;;;;;;;;29.00;28.50;;;;;7.59;54.75;102094.66;5121764;27;11503;-79
2021/04/09 06:00:06;;;;;;;;;28.00;28.00;;;;;7.89;54.88;102090.19;5119257;27;11503;-79
2021/04/09 06:03:02;;;;;;;;;38.00;33.50;;;;;8.03;54.12;102094.81;5113460;28;11560;-79
2021/04/09 06:05:57;;;;;;;;;35.75;35.75;;;;;8.14;53.84;102100.34;5112950;27;11564;-79
2021/04/09 06:08:25;;;;;;;;;34.50;33.00;;;;;8.34;54.80;102095.56;5134991;27;11503;-80
2021/04/09 06:11:21;;;;;;;;;25.25;24.50;;;;;8.35;55.63;102110.19;5133798;27;11617;-78
2021/04/09 06:14:18;;;;;;;;;34.00;34.00;;;;;8.58;53.14;102109.53;5116165;27;11494;-77
2021/04/09 06:17:14;;;;;;;;;27.25;27.25;;;;;8.64;54.53;102107.59;5099608;28;11656;-79
2021/04/09 06:20:10;;;;;;;;;55.00;43.50;;;;;8.91;53.30;102118.22;5112500;28;11525;-79
2021/04/09 06:22:37;;;;;;;;;27.50;27.25;;;;;8.90;51.57;102117.41;5115102;27;11536;-79
2021/04/09 06:25:07;;;;;;;;;27.00;27.00;;;;;8.61;52.35;102110.94;5095776;28;11627;-80
2021/04/09 06:28:04;;;;;;;;;30.75;30.75;;;;;8.62;52.20;102112.56;5130660;27;11497;-78
2021/04/09 06:31:00;;;;;;;;;29.75;29.00;;;;;8.69;52.33;102115.84;5112951;27;11514;-79
2021/04/09 06:33:37;;;;;;;;;24.25;24.25;;;;;8.51;52.29;102119.22;5117745;27;11528;-79
2021/04/09 06:36:33;;;;;;;;;25.00;25.00;;;;;8.76;51.54;102118.31;5133210;27;11551;-78
2021/04/09 06:39:28;;;;;;;;;30.00;30.00;;;;;8.96;54.07;102123.69;5111878;28;11520;-79
2021/04/09 06:42:24;;;;;;;;;23.00;22.25;;;;;9.39;52.36;102129.47;5113173;28;11540;-78
2021/04/09 06:45:20;;;;;;;;;32.25;31.25;;;;;9.81;51.39;102130.78;5098722;28;11437;-80
2021/04/09 06:48:16;;;;;;;;;27.00;27.00;;;;;10.17;51.23;102137.59;5098551;28;11455;-80
2021/04/09 06:51:14;;;;;;;;;37.25;36.25;;;;;10.55;55.91;102129.44;5125804;27;11458;-80
2021/04/09 06:53:47;;;;;;;;;27.25;26.75;;;;;10.59;48.65;102147.13;5115421;27;11555;-79
2021/04/09 06:56:46;;;;;;;;;25.25;19.50;;;;;10.47;47.49;102138.41;5118436;27;11556;-79
2021/04/09 06:59:43;;;;;;;;;24.75;24.00;;;;;10.20;48.54;102138.97;5129796;27;11432;-79
2021/04/09 07:02:20;;;;;;;;;25.25;23.25;;;;;10.23;47.52;102139.22;5113788;28;12302;-80
2021/04/09 07:04:51;;;;;;;;;23.50;22.50;;;;;10.33;47.35;102126.41;5096350;27;11435;-80
2021/04/09 07:07:19;;;;;;;;;22.75;22.75;;;;;10.55;47.49;102140.50;5102401;28;11441;-79
2021/04/09 07:09:47;;;;;;;;;26.25;22.25;;;;;10.52;45.84;102138.34;5112380;27;12172;-80
2021/04/09 07:12:28;;;;;;;;;25.50;22.50;;;;;10.30;46.31;102141.66;5114082;27;11462;-79
2021/04/09 07:15:00;;;;;;;;;19.00;17.50;;;;;10.60;47.11;102140.47;5112380;27;11875;-80
2021/04/09 07:17:43;;;;;;;;;16.75;16.75;;;;;10.13;45.14;102144.03;5100328;27;11367;-80
2021/04/09 07:20:13;;;;;;;;;21.75;21.75;;;;;10.44;46.97;102144.53;5113396;27;11524;-79
2021/04/09 07:22:44;;;;;;;;;19.75;19.00;;;;;10.78;45.26;102147.13;5092123;27;12215;-79
2021/04/09 07:25:14;;;;;;;;;18.00;18.00;;;;;10.99;43.81;102153.22;5112027;27;11293;-79
2021/04/09 07:28:16;;;;;;;;;23.50;23.50;;;;;10.80;44.04;102161.50;5111069;27;11221;-80
2021/04/09 07:31:27;;;;;;;;;20.25;20.25;;;;;11.16;45.52;102155.47;5111415;28;11473;-79
2021/04/09 07:33:54;;;;;;;;;23.00;21.25;;;;;11.17;43.56;102157.94;5128774;27;12069;-80
2021/04/09 07:36:42;;;;;;;;;18.75;18.75;;;;;11.21;43.57;102166.50;5131235;27;10977;-79
2021/04/09 07:39:37;;;;;;;;;21.25;20.75;;;;;11.43;43.40;102168.66;5111884;27;11187;-80
2021/04/09 07:42:14;;;;;;;;;26.50;26.25;;;;;11.38;43.00;102173.13;5112107;28;11092;-80
2021/04/09 07:44:42;;;;;;;;;24.25;23.00;;;;;11.62;42.96;102161.13;5094698;27;11982;-81
2021/04/09 07:47:15;;;;;;;;;15.50;15.25;;;;;11.51;41.44;102171.56;5113655;27;11022;-77
2021/04/09 07:49:43;;;;;;;;;17.50;17.50;;;;;11.87;42.47;102171.00;5116218;28;10873;-79
2021/04/09 07:52:49;;;;;;;;;17.00;17.00;;;;;11.70;40.92;102177.06;5113399;27;10972;-78
2021/04/09 07:55:24;;;;;;;;;15.50;15.50;;;;;11.89;40.24;102169.56;5116911;27;10558;-78
2021/04/09 07:57:51;;;;;;;;;15.25;13.75;;;;;12.11;39.45;102165.28;5097899;27;10675;-79
2021/04/09 08:00:50;;;;;;;;;16.50;16.50;;;;;12.33;39.25;102161.84;5101416;27;10644;-79
2021/04/09 08:03:46;;;;;;;;;21.75;19.75;;;;;11.99;40.75;102178.84;5109143;27;10672;-80
2021/04/09 08:06:37;;;;;;;;;16.25;16.25;;;;;11.98;39.36;102160.56;5116958;27;10715;-80
2021/04/09 08:09:18;;;;;;;;;15.25;15.00;;;;;11.73;40.95;102165.41;5113883;27;10718;-80
2021/04/09 08:12:05;;;;;;;;;19.25;19.25;;;;;11.86;37.72;102167.41;5113591;27;10713;-80
2021/04/09 08:14:48;;;;;;;;;11.50;11.50;;;;;11.88;37.95;102162.38;5101651;27;10375;-79
2021/04/09 08:18:05;;;;;;;;;16.25;16.25;;;;;12.30;42.38;102154.94;5133896;27;10388;-78
2021/04/09 08:21:01;;;;;;;;;14.75;14.75;;;;;12.92;42.66;102155.34;5104519;27;10643;-78
2021/04/09 08:23:56;;;;;;;;;16.00;16.00;;;;;13.30;34.78;102158.66;5115146;27;10637;-77
2021/04/09 08:26:52;;;;;;;;;14.00;14.00;;;;;12.69;33.61;102159.16;5123567;27;10418;-77
2021/04/09 08:29:48;;;;;;;;;11.50;11.50;;;;;12.34;34.09;102158.75;5114679;28;10313;-77
2021/04/09 08:32:45;;;;;;;;;13.50;13.25;;;;;12.67;33.13;102167.00;5121754;27;10247;-75
2021/04/09 08:35:13;;;;;;;;;18.25;17.75;;;;;13.58;36.20;102155.78;5102601;27;10260;-79
2021/04/09 08:37:41;;;;;;;;;15.25;14.75;;;;;13.01;32.36;102155.41;5118936;27;10225;-79
2021/04/09 08:40:37;;;;;;;;;15.00;15.00;;;;;13.49;34.78;102166.00;5129554;27;10156;-77
2021/04/09 08:43:34;;;;;;;;;16.25;16.25;;;;;13.30;40.96;102158.66;5135599;27;10110;-78
2021/04/09 08:46:03;;;;;;;;;14.25;14.00;;;;;13.08;34.61;102153.84;5136609;27;10209;-75
2021/04/09 08:49:00;;;;;;;;;15.25;15.25;;;;;12.85;34.44;102162.44;5129655;27;10186;-76
2021/04/09 08:52:00;;;;;;;;;24.00;24.00;;;;;13.27;34.25;102161.25;5120689;27;10369;-74
2021/04/09 08:54:56;;;;;;;;;14.75;14.75;;;;;13.06;34.20;102160.88;5129143;27;11198;-75
2021/04/09 08:57:52;;;;;;;;;24.25;24.25;;;;;13.07;34.95;102159.72;5116437;27;10276;-75
2021/04/09 09:00:54;;;;;;;;;15.50;15.50;;;;;13.04;35.13;102165.91;5121561;27;10381;-74
2021/04/09 09:03:50;;;;;;;;;15.75;15.50;;;;;12.89;34.71;102177.38;5114223;28;10145;-75
2021/04/09 09:06:46;;;;;;;;;13.25;13.25;;;;;12.43;34.67;102176.34;5114919;27;10355;-75
2021/04/09 09:09:41;;;;;;;;;16.25;16.25;;;;;12.69;33.98;102175.81;5114150;28;10294;-76
2021/04/09 09:12:14;;;;;;;;;10.75;10.75;;;;;12.65;33.63;102178.41;5115289;28;10309;-74
2021/04/09 09:15:10;;;;;;;;;6.00;6.00;;;;;12.61;32.51;102179.31;5114216;28;10238;-74
2021/04/09 09:17:37;;;;;;;;;12.25;12.25;;;;;12.71;32.63;102177.16;5121907;27;11031;-75
2021/04/09 09:20:12;;;;;;;;;11.25;11.25;;;;;12.98;32.15;102179.09;5119774;27;10158;-75
2021/04/09 09:22:52;;;;;;;;;16.50;16.00;;;;;12.71;33.96;102179.09;5115906;27;10214;-75
2021/04/09 09:25:41;;;;;;;;;10.25;10.25;;;;;12.56;32.51;102183.00;5115210;28;10166;-75
2021/04/09 09:28:36;;;;;;;;;9.00;9.00;;;;;12.91;31.33;102187.03;5114681;27;10872;-74
2021/04/09 09:31:30;;;;;;;;;11.75;11.75;;;;;12.85;32.87;102176.31;5123978;27;10222;-75
2021/04/09 09:34:18;;;;;;;;;10.00;10.00;;;;;13.06;32.47;102183.91;5114872;28;10067;-76
2021/04/09 09:37:18;;;;;;;;;9.00;9.00;;;;;13.30;31.47;102171.75;5126540;27;10156;-73
2021/04/09 09:40:05;;;;;;;;;8.50;8.50;;;;;13.19;31.93;102170.28;5125380;27;10160;-73
2021/04/09 09:42:43;;;;;;;;;11.25;11.25;;;;;13.38;32.54;102175.72;5118027;27;10229;-74
2021/04/09 09:45:39;;;;;;;;;20.00;18.25;;;;;13.09;31.48;102166.59;5120841;27;10144;-73
2021/04/09 09:48:15;;;;;;;;;0.00;0.00;;;;;13.17;32.43;102170.59;5115649;27;10204;-75
2021/04/09 09:50:51;;;;;;;;;10.50;10.50;;;;;12.67;31.91;102175.31;5115098;28;9779;-74
2021/04/09 09:53:56;;;;;;;;;8.75;8.75;;;;;13.47;31.58;102163.53;5114874;27;10046;-74
2021/04/09 09:56:52;;;;;;;;;67.50;41.00;;;;;14.01;32.18;102167.19;5114689;27;9887;-75
2021/04/09 09:59:48;;;;;;;;;9.25;8.75;;;;;14.49;30.12;102163.66;5113181;28;10901;-75
2021/04/09 10:02:30;;;;;;;;;12.00;11.00;;;;;14.44;29.56;102159.06;5113848;27;9936;-75
2021/04/09 10:05:26;;;;;;;;;15.50;15.50;;;;;14.17;29.87;102162.03;5113874;28;9699;-75
2021/04/09 10:08:22;;;;;;;;;9.50;9.50;;;;;13.81;29.16;102153.81;5121281;27;9680;-74
2021/04/09 10:11:20;;;;;;;;;12.75;9.75;;;;;13.91;30.48;102159.13;5112677;27;9603;-75
2021/04/09 10:14:01;;;;;;;;;12.50;12.50;;;;;13.84;28.59;102150.41;5113120;28;9688;-75
2021/04/09 10:17:09;;;;;;;;;11.00;10.75;;;;;13.11;31.28;102154.34;5114138;27;10609;-77
2021/04/09 10:20:03;;;;;;;;;8.00;8.00;;;;;12.96;31.10;102156.38;5127376;27;9850;-76
2021/04/09 10:22:31;;;;;;;;;10.50;10.50;;;;;13.56;30.34;102152.47;5117098;27;9919;-75
2021/04/09 10:24:58;;;;;;;;;10.25;10.25;;;;;13.76;29.19;102156.72;5096381;27;9909;-75
2021/04/09 10:27:25;;;;;;;;;12.00;12.00;;;;;13.61;29.55;102150.41;5126896;27;9832;-75
2021/04/09 10:30:32;;;;;;;;;9.75;9.75;;;;;13.50;29.71;102148.22;5113352;28;9842;-75
2021/04/09 10:33:42;;;;;;;;;10.75;10.00;;;;;13.70;30.08;102155.22;5113642;28;9845;-75
2021/04/09 10:36:19;;;;;;;;;16.00;16.00;;;;;13.91;29.19;102150.78;5114811;27;9945;-77
2021/04/09 10:39:23;;;;;;;;;11.25;10.75;;;;;13.49;27.71;102152.91;5129927;27;10015;-80
2021/04/09 10:42:20;;;;;;;;;9.25;9.25;;;;;14.24;29.79;102153.22;5112688;27;9689;-82
2021/04/09 10:45:26;;;;;;;;;12.00;12.00;;;;;14.58;28.93;102152.59;5114098;27;9915;-77
2021/04/09 10:48:22;;;;;;;;;6.25;6.25;;;;;14.78;26.58;102159.50;5112096;28;9613;-81
2021/04/09 10:51:18;;;;;;;;;9.50;9.00;;;;;14.52;25.91;102154.69;5112414;28;10403;-79
2021/04/09 10:54:16;;;;;;;;;10.50;10.50;;;;;14.72;26.76;102144.91;5113386;27;9707;-78
2021/04/09 10:56:59;;;;;;;;;11.50;11.50;;;;;14.81;25.44;102150.53;5114282;27;9688;-80
2021/04/09 10:59:56;;;;;;;;;9.00;9.00;;;;;14.84;26.42;102142.31;5112175;28;9525;-81
2021/04/09 11:02:52;;;;;;;;;11.00;10.00;;;;;15.13;25.97;102136.16;5099421;27;9444;-79
2021/04/09 11:05:48;;;;;;;;;11.75;11.75;;;;;14.62;26.33;102145.22;5132878;27;9682;-78
2021/04/09 11:08:44;;;;;;;;;9.00;8.50;;;;;14.76;24.35;102139.53;5132785;27;9521;-79
2021/04/09 11:11:40;;;;;;;;;31.25;18.75;;;;;14.96;24.32;102141.72;5132820;27;9550;-78
2021/04/09 11:14:36;;;;;;;;;8.33;8.33;;;;;14.96;21.91;102144.50;5127567;27;9597;-77
2021/04/09 11:17:03;;;;;;;;;6.00;6.00;;;;;14.29;22.02;102130.84;5120111;27;9326;-77
2021/04/09 11:20:01;;;;;;;;;7.00;7.00;;;;;15.08;22.05;102138.25;5111762;27;9394;-77
2021/04/09 11:22:42;;;;;;;;;14.50;14.50;;;;;15.34;21.93;102122.38;5131243;27;9582;-77
2021/04/09 11:25:42;;;;;;;;;19.00;19.00;;;;;15.37;23.10;102120.91;5131035;27;9711;-78
2021/04/09 11:28:38;;;;;;;;;14.00;14.00;;;;;15.21;23.25;102120.56;5132260;27;9715;-74
2021/04/09 11:31:11;;;;;;;;;10.00;10.00;;;;;14.54;23.86;102127.34;5113390;27;9510;-76
2021/04/09 11:34:09;;;;;;;;;12.25;11.00;;;;;13.98;24.60;102117.75;5131883;27;9391;-75
2021/04/09 11:37:06;;;;;;;;;4.00;4.00;;;;;14.37;23.91;102116.13;5117895;27;10279;-79
2021/04/09 11:39:51;;;;;;;;;8.25;7.00;;;;;14.49;24.07;102123.88;5126355;27;9481;-80
2021/04/09 11:42:53;;;;;;;;;17.50;17.50;;;;;14.52;25.54;102118.50;5128042;27;9550;-78
2021/04/09 11:45:43;;;;;;;;;34.25;29.75;;;;;14.98;25.14;102106.78;5119952;28;9768;-80
2021/04/09 11:48:27;;;;;;;;;20.50;20.50;;;;;14.83;24.19;102110.06;5125394;28;10080;-76
2021/04/09 11:51:21;;;;;;;;;24.25;24.25;;;;;14.79;25.39;102103.47;5106959;27;10015;-77
2021/04/09 11:54:21;;;;;;;;;25.50;24.25;;;;;15.19;24.71;102095.00;5112939;28;10208;-77
2021/04/09 11:57:27;;;;;;;;;24.00;22.50;;;;;15.20;25.09;102088.28;5112638;28;10203;-79
2021/04/09 12:00:29;;;;;;;;;41.50;33.25;;;;;14.76;23.80;102070.72;5111804;28;9973;-78
2021/04/09 12:03:05;;;;;;;;;27.75;23.50;;;;;15.47;23.96;102089.88;5113557;28;10193;-78
2021/04/09 12:06:15;;;;;;;;;16.00;16.00;;;;;15.68;23.83;102076.91;5116705;27;9790;-77
2021/04/09 12:09:11;;;;;;;;;18.00;17.25;;;;;15.98;24.04;102082.56;5120621;27;9613;-76
2021/04/09 12:12:07;;;;;;;;;24.25;21.00;;;;;16.05;25.00;102074.50;5132056;27;9627;-79
2021/04/09 12:14:58;;;;;;;;;21.00;16.67;;;;;16.56;23.05;102076.22;5120890;27;9490;-77
2021/04/09 12:17:44;;;;;;;;;25.33;23.33;;;;;16.21;22.30;102066.38;5126391;27;9297;-77
2021/04/09 12:20:40;;;;;;;;;12.67;10.00;;;;;16.84;23.22;102075.72;5130324;27;9512;-77
2021/04/09 12:23:35;;;;;;;;;10.00;10.00;;;;;16.21;22.69;102077.56;5119980;27;9300;-79
2021/04/09 12:26:31;;;;;;;;;9.33;9.33;;;;;16.71;22.86;102069.22;5114715;27;9060;-76
2021/04/09 12:29:26;;;;;;;;;10.00;10.00;;;;;17.67;23.02;102069.22;5119452;28;9000;-80
2021/04/09 12:32:08;;;;;;;;;17.25;14.25;;;;;17.74;22.06;102073.09;5112394;28;8845;-76
2021/04/09 12:34:51;;;;;;;;;21.50;20.50;;;;;18.52;21.98;102071.28;5096893;28;8987;-79
2021/04/09 12:37:37;;;;;;;;;18.25;18.25;;;;;18.14;21.31;102069.66;5127838;27;8827;-80
2021/04/09 12:40:19;;;;;;;;;13.75;13.75;;;;;17.84;21.95;102063.44;5114645;27;8843;-79
2021/04/09 12:43:14;;;;;;;;;2.75;2.75;;;;;17.63;21.79;102063.47;5129001;27;8856;-78
2021/04/09 12:45:42;;;;;;;;;7.75;7.75;;;;;17.96;21.92;102071.88;5116707;27;8914;-78
2021/04/09 12:48:16;;;;;;;;;9.50;9.50;;;;;18.79;21.76;102070.59;5119328;27;8917;-78
2021/04/09 12:50:57;;;;;;;;;14.75;14.75;;;;;19.09;21.46;102061.81;5115293;27;8853;-75
2021/04/09 12:53:53;;;;;;;;;12.50;12.50;;;;;19.00;21.05;102072.38;5102123;28;8844;-77
2021/04/09 12:56:50;;;;;;;;;14.50;14.25;;;;;19.08;20.76;102057.41;5114378;27;8998;-77
2021/04/09 12:59:36;;;;;;;;;21.25;20.75;;;;;19.10;21.70;102060.69;5106880;27;9004;-76
2021/04/09 13:02:32;;;;;;;;;23.50;22.75;;;;;18.63;21.60;102055.59;5120242;27;8827;-78
2021/04/09 13:05:03;;;;;;;;;19.75;18.00;;;;;17.99;21.02;102064.75;5133908;27;8863;-79
2021/04/09 13:07:30;;;;;;;;;18.25;17.25;;;;;18.42;22.27;102060.56;5136293;27;8907;-75
2021/04/09 13:09:58;;;;;;;;;11.50;11.50;;;;;18.41;22.15;102068.16;5136321;27;8861;-78
2021/04/09 13:12:28;;;;;;;;;14.75;14.75;;;;;18.49;21.91;102058.81;5136403;27;8831;-77
2021/04/09 13:14:57;;;;;;;;;15.50;15.00;;;;;18.74;22.28;102067.19;5136549;27;8839;-77
2021/04/09 13:17:28;;;;;;;;;18.25;18.25;;;;;18.71;22.55;102068.72;5136164;27;8832;-77
2021/04/09 13:19:55;;;;;;;;;14.75;14.75;;;;;18.43;21.91;102056.59;5136370;27;9671;-74
2021/04/09 13:22:25;;;;;;;;;40.50;32.25;;;;;18.18;22.27;102061.38;5135704;27;8855;-77
2021/04/09 13:24:52;;;;;;;;;15.75;15.75;;;;;18.18;22.10;102072.59;5133563;27;8831;-74
2021/04/09 13:27:20;;;;;;;;;15.25;15.25;;;;;18.27;22.03;102067.69;5115242;28;8853;-75